Time;durP1;ratioP1;P1;durP2;ratioP2;P2;SDS_P1;SDS_P2;PMS_P1;PMS_P2;Temp;Humidity;BMP_temperature;BMP_pressure;BME280_temperature;BME280_humidity;BME280_pressure;Samples;Min_cycle;Max_cycle;Signal;HPM_P1;HPM_P2
2022/02/19 00:02:23;;;;;;;74.58;32.00;;;;;;;1.01;73.26;99805.67;1727945;81;21845;-76
2022/02/19 00:04:49;;;;;;;81.37;35.52;;;;;;;1.00;73.38;99809.65;1728258;82;21012;-75
2022/02/19 00:07:16;;;;;;;62.45;28.92;;;;;;;0.96;73.46;99807.64;1728028;83;21476;-75
2022/02/19 00:09:42;;;;;;;59.08;28.40;;;;;;;0.94;73.57;99805.58;1727847;83;21004;-75
2022/02/19 00:12:10;;;;;;;41.25;21.45;;;;;;;0.91;73.64;99797.94;1727788;81;21468;-75
2022/02/19 00:14:36;;;;;;;37.15;20.05;;;;;;;0.89;73.77;99802.84;1727961;83;22450;-75
2022/02/19 00:17:05;;;;;;;45.85;23.70;;;;;;;0.86;73.88;99799.91;1728944;81;20985;-75
2022/02/19 00:19:31;;;;;;;33.83;18.48;;;;;;;0.83;73.98;99800.06;1727837;81;21004;-75
2022/02/19 00:21:58;;;;;;;36.40;19.07;;;;;;;0.85;74.01;99800.83;1715732;83;21015;-75
2022/02/19 00:24:26;;;;;;;36.33;20.27;;;;;;;0.84;74.02;99801.28;1748465;81;21510;-75
2022/02/19 00:26:54;;;;;;;46.60;27.35;;;;;;;0.83;73.99;99797.01;1771471;81;21813;-75
2022/02/19 00:29:21;;;;;;;38.08;22.27;;;;;;;0.81;73.98;99804.05;1771888;79;20932;-75
2022/02/19 00:31:47;;;;;;;28.27;16.70;;;;;;;0.80;73.98;99807.56;1771599;79;20941;-75
2022/02/19 00:34:14;;;;;;;24.52;14.85;;;;;;;0.77;73.99;99806.84;1755839;81;20987;-75
2022/02/19 00:36:42;;;;;;;29.90;18.02;;;;;;;0.74;74.05;99805.70;1741086;82;21103;-75
2022/02/19 00:39:09;;;;;;;21.30;13.28;;;;;;;0.73;74.13;99815.72;1740981;81;21855;-75
2022/02/19 00:41:41;;;;;;;23.90;13.98;;;;;;;0.72;74.15;99815.34;1741173;81;21491;-75
2022/02/19 00:44:08;;;;;;;21.52;12.25;;;;;;;0.73;74.22;99819.63;1739819;81;20999;-75
2022/02/19 00:46:36;;;;;;;20.85;11.80;;;;;;;0.72;74.19;99812.28;1741043;81;21000;-75
2022/02/19 00:49:03;;;;;;;19.05;10.00;;;;;;;0.70;74.19;99817.18;1741019;82;20996;-76
2022/02/19 00:51:31;;;;;;;18.48;10.70;;;;;;;0.69;74.21;99811.14;1761183;81;21630;-75
2022/02/19 00:53:58;;;;;;;21.07;11.85;;;;;;;0.67;74.21;99810.34;1772468;81;20925;-75
2022/02/19 00:56:25;;;;;;;17.52;11.05;;;;;;;0.67;74.24;99805.61;1772828;79;21426;-75
2022/02/19 00:58:52;;;;;;;15.32;8.90;;;;;;;0.67;74.28;99802.55;1772531;81;21035;-75
2022/02/19 01:01:20;;;;;;;13.78;8.38;;;;;;;0.65;74.33;99803.09;1772872;81;20984;-75
2022/02/19 01:03:55;;;;;;;12.45;8.08;;;;;;;0.64;74.37;99811.80;1771224;79;21785;-75
2022/02/19 01:06:21;;;;;;;13.62;7.80;;;;;;;0.64;74.39;99813.10;1745477;81;21047;-75
2022/02/19 01:08:51;;;;;;;13.72;8.08;;;;;;;0.62;74.42;99820.59;1771518;79;20969;-75
2022/02/19 01:11:19;;;;;;;12.47;7.75;;;;;;;0.60;74.47;99821.97;1772807;81;20953;-75
2022/02/19 01:13:48;;;;;;;15.15;7.97;;;;;;;0.57;74.57;99824.69;1772240;79;21420;-75
2022/02/19 01:16:15;;;;;;;18.32;8.73;;;;;;;0.54;74.67;99824.39;1772057;79;21770;-75
2022/02/19 01:18:44;;;;;;;16.25;8.78;;;;;;;0.53;74.75;99825.30;1771585;81;20948;-75
2022/02/19 01:21:10;;;;;;;15.75;9.13;;;;;;;0.53;74.81;99830.50;1743366;79;21023;-75
2022/02/19 01:23:38;;;;;;;15.20;9.60;;;;;;;0.51;74.86;99837.99;1759497;80;20996;-75
2022/02/19 01:26:05;;;;;;;16.00;8.85;;;;;;;0.49;74.93;99840.67;1756864;80;20996;-75
2022/02/19 01:28:34;;;;;;;15.93;8.50;;;;;;;0.47;74.96;99833.37;1755815;80;21798;-75
2022/02/19 01:31:01;;;;;;;14.83;9.90;;;;;;;0.46;74.97;99828.25;1740926;81;21408;-75
2022/02/19 01:33:28;;;;;;;13.48;8.00;;;;;;;0.43;75.00;99822.75;1757891;80;20977;-76
2022/02/19 01:35:57;;;;;;;14.55;9.20;;;;;;;0.42;74.98;99822.83;1757730;80;21091;-75
2022/02/19 01:38:24;;;;;;;13.93;8.80;;;;;;;0.38;75.02;99817.37;1758338;81;21491;-75
2022/02/19 01:40:52;;;;;;;13.03;8.38;;;;;;;0.35;75.03;99814.92;1758073;81;21888;-75
2022/02/19 01:43:19;;;;;;;15.08;8.85;;;;;;;0.32;75.07;99817.22;1729485;81;20993;-75
2022/02/19 01:45:47;;;;;;;13.05;7.37;;;;;;;0.27;75.14;99805.73;1728062;83;20997;-75
2022/02/19 01:48:15;;;;;;;13.70;8.98;;;;;;;0.25;75.17;99805.42;1727932;81;21444;-75
2022/02/19 01:50:42;;;;;;;13.32;8.08;;;;;;;0.23;75.23;99799.00;1727984;83;20944;-75
2022/02/19 01:53:09;;;;;;;16.15;8.25;;;;;;;0.20;75.26;99800.45;1728015;81;21828;-75
2022/02/19 01:55:43;;;;;;;14.93;7.87;;;;;;;0.18;75.35;99792.32;1727628;82;21047;-75
2022/02/19 01:58:12;;;;;;;13.98;6.80;;;;;;;0.16;75.44;99783.77;1727660;81;21428;-75
2022/02/19 02:00:49;;;;;;;11.43;7.10;;;;;;;0.15;75.47;99777.73;1687362;85;21027;-76
2022/02/19 02:03:31;;;;;;;11.43;7.12;;;;;;;0.14;75.62;99772.16;1717190;83;20931;-74
2022/02/19 02:06:00;;;;;;;14.65;7.22;;;;;;;0.15;75.73;99780.33;1710655;83;21840;-74
2022/02/19 02:08:28;;;;;;;12.15;7.95;;;;;;;0.17;75.79;99768.11;1710980;84;21432;-75
2022/02/19 02:10:56;;;;;;;13.62;7.85;;;;;;;0.19;75.78;99775.40;1716806;83;21008;-75
2022/02/19 02:13:27;;;;;;;12.73;7.70;;;;;;;0.21;75.77;99771.42;1715923;83;21024;-75
2022/02/19 02:15:55;;;;;;;13.00;7.40;;;;;;;0.23;75.78;99771.73;1708686;83;21006;-75
2022/02/19 02:18:44;;;;;;;15.32;7.15;;;;;;;0.23;75.77;99770.44;1728019;83;21849;-75
2022/02/19 02:21:11;;;;;;;11.63;6.75;;;;;;;0.22;75.71;99770.05;1727320;80;21408;-74
2022/02/19 02:23:38;;;;;;;12.75;7.00;;;;;;;0.20;75.74;99768.45;1713787;82;20961;-74
2022/02/19 02:26:05;;;;;;;12.25;6.60;;;;;;;0.18;75.82;99770.25;1715251;83;20969;-74
2022/02/19 02:28:32;;;;;;;11.05;6.62;;;;;;;0.15;75.85;99756.12;1715333;83;21043;-74
2022/02/19 02:30:59;;;;;;;12.85;6.62;;;;;;;0.13;75.95;99760.55;1715278;83;21885;-75
2022/02/19 02:33:25;;;;;;;10.28;6.40;;;;;;;0.13;76.16;99772.23;1732427;82;21001;-75
2022/02/19 02:35:54;;;;;;;10.60;5.85;;;;;;;0.13;76.22;99770.48;1730528;82;20996;-75
2022/02/19 02:38:22;;;;;;;10.20;6.47;;;;;;;0.15;76.38;99769.11;1738954;82;21031;-75
2022/02/19 02:40:48;;;;;;;10.32;6.35;;;;;;;0.16;76.45;99772.08;1715926;82;20997;-75
2022/02/19 02:43:16;;;;;;;11.65;6.58;;;;;;;0.17;76.50;99775.91;1744939;82;22676;-74
2022/02/19 02:45:44;;;;;;;9.23;6.12;;;;;;;0.19;76.58;99772.80;1744927;82;21050;-75
2022/02/19 02:48:12;;;;;;;11.10;6.55;;;;;;;0.20;76.60;99769.29;1744955;82;20997;-75
2022/02/19 02:50:39;;;;;;;9.45;5.92;;;;;;;0.21;76.77;99772.27;1724868;82;21479;-75
2022/02/19 02:53:05;;;;;;;11.48;5.92;;;;;;;0.21;76.82;99770.13;1715288;83;21383;-74
2022/02/19 02:55:32;;;;;;;10.28;5.55;;;;;;;0.22;76.86;99770.05;1715588;83;22456;-75
2022/02/19 02:57:59;;;;;;;11.45;6.37;;;;;;;0.23;76.91;99772.19;1715189;83;20980;-75
2022/02/19 03:00:26;;;;;;;9.75;5.67;;;;;;;0.24;76.95;99769.98;1715300;83;21036;-74
2022/02/19 03:02:52;;;;;;;8.58;5.50;;;;;;;0.24;77.02;99779.06;1715297;83;21016;-75
2022/02/19 03:05:19;;;;;;;9.78;5.67;;;;;;;0.25;77.08;99776.39;1715564;83;20974;-75
2022/02/19 03:07:46;;;;;;;9.88;5.65;;;;;;;0.24;77.05;99781.20;1716169;82;22710;-75
2022/02/19 03:10:16;;;;;;;11.85;6.15;;;;;;;0.25;77.11;99771.66;1715513;83;20956;-75
2022/02/19 03:12:45;;;;;;;7.62;5.08;;;;;;;0.25;77.10;99774.25;1715196;83;21404;-75
2022/02/19 03:15:18;;;;;;;12.03;5.53;;;;;;;0.24;77.16;99765.63;1715269;83;21040;-75
2022/02/19 03:17:44;;;;;;;11.33;5.20;;;;;;;0.26;77.17;99768.14;1714852;83;21053;-75
2022/02/19 03:20:17;;;;;;;9.33;5.20;;;;;;;0.27;77.23;99758.13;1715191;82;21880;-75
2022/02/19 03:22:45;;;;;;;8.65;5.03;;;;;;;0.30;77.32;99764.51;1715179;83;20973;-74
2022/02/19 03:25:14;;;;;;;8.60;5.08;;;;;;;0.34;77.31;99760.84;1741856;82;20997;-75
2022/02/19 03:27:42;;;;;;;9.68;5.30;;;;;;;0.35;77.22;99756.02;1716085;82;21637;-73
2022/02/19 03:30:12;;;;;;;10.23;5.12;;;;;;;0.39;77.17;99749.78;1744724;82;21001;-75
2022/02/19 03:32:39;;;;;;;8.68;5.20;;;;;;;0.38;77.11;99746.77;1744930;82;21866;-75
2022/02/19 03:35:08;;;;;;;8.70;4.97;;;;;;;0.38;77.04;99754.57;1744837;82;21386;-75
2022/02/19 03:37:36;;;;;;;8.13;4.80;;;;;;;0.38;76.99;99756.33;1744916;81;21492;-75
2022/02/19 03:40:06;;;;;;;7.60;5.10;;;;;;;0.36;76.97;99755.11;1742368;82;21005;-75
2022/02/19 03:42:37;;;;;;;9.23;5.12;;;;;;;0.36;76.97;99752.51;1726203;81;21537;-75
2022/02/19 03:45:07;;;;;;;9.35;4.62;;;;;;;0.36;76.92;99752.97;1745269;82;21816;-75
2022/02/19 03:47:34;;;;;;;7.15;4.75;;;;;;;0.34;76.93;99748.31;1744925;82;21017;-75
2022/02/19 03:50:05;;;;;;;8.58;4.90;;;;;;;0.35;76.90;99751.28;1744776;82;20993;-73
2022/02/19 03:52:33;;;;;;;8.15;4.75;;;;;;;0.34;76.94;99756.94;1744907;81;21060;-75
2022/02/19 03:55:00;;;;;;;8.05;4.92;;;;;;;0.35;76.90;99753.88;1745207;82;20957;-74
2022/02/19 03:57:27;;;;;;;8.43;4.95;;;;;;;0.35;76.90;99759.92;1739025;82;22204;-74
2022/02/19 03:59:57;;;;;;;8.83;4.83;;;;;;;0.35;76.88;99766.88;1715079;83;21001;-74
2022/02/19 04:02:23;;;;;;;9.13;5.55;;;;;;;0.34;76.87;99769.92;1715298;83;21020;-74
2022/02/19 04:04:50;;;;;;;8.83;5.40;;;;;;;0.31;76.88;99762.29;1715139;83;21505;-74
2022/02/19 04:07:17;;;;;;;12.00;5.87;;;;;;;0.30;76.91;99759.77;1715245;83;20950;-74
2022/02/19 04:09:46;;;;;;;7.35;4.78;;;;;;;0.29;76.89;99747.24;1714046;83;21503;-74
2022/02/19 04:12:14;;;;;;;8.95;5.17;;;;;;;0.30;76.94;99755.88;1715168;83;20949;-74
2022/02/19 04:14:41;;;;;;;9.35;5.22;;;;;;;0.28;77.00;99751.56;1716163;82;20953;-73
2022/02/19 04:17:12;;;;;;;9.63;5.28;;;;;;;0.29;77.03;99752.44;1715207;83;20971;-74
2022/02/19 04:19:40;;;;;;;9.75;5.25;;;;;;;0.32;77.10;99744.48;1715190;82;21060;-74
2022/02/19 04:22:07;;;;;;;9.53;5.37;;;;;;;0.36;77.12;99739.52;1715161;83;22538;-74
2022/02/19 04:24:35;;;;;;;8.53;5.20;;;;;;;0.38;77.16;99740.28;1715342;82;21591;-74
2022/02/19 04:27:06;;;;;;;7.95;5.28;;;;;;;0.42;77.16;99750.93;1715245;82;21464;-74
2022/02/19 04:29:33;;;;;;;10.03;6.15;;;;;;;0.44;77.17;99741.30;1686790;83;21460;-73
2022/02/19 04:32:03;;;;;;;8.55;5.53;;;;;;;0.46;77.12;99744.66;1727769;82;20965;-74
2022/02/19 04:34:35;;;;;;;8.43;5.45;;;;;;;0.48;77.09;99744.16;1743664;82;21500;-74
2022/02/19 04:37:02;;;;;;;9.03;5.80;;;;;;;0.50;77.08;99751.41;1715928;82;21497;-75
2022/02/19 04:39:31;;;;;;;8.83;5.60;;;;;;;0.50;77.08;99752.70;1744876;81;21416;-75
2022/02/19 04:41:59;;;;;;;11.40;5.70;;;;;;;0.50;77.07;99752.70;1745160;82;20949;-75
2022/02/19 04:44:25;;;;;;;9.98;5.60;;;;;;;0.51;77.08;99744.45;1744903;82;21004;-75
2022/02/19 04:46:53;;;;;;;12.13;5.45;;;;;;;0.52;77.06;99749.57;1743000;82;21806;-75
2022/02/19 04:49:20;;;;;;;7.42;4.67;;;;;;;0.54;77.04;99741.23;1729288;82;21385;-75
2022/02/19 04:51:47;;;;;;;8.70;6.47;;;;;;;0.54;76.98;99738.64;1715709;82;21032;-75
2022/02/19 04:54:14;;;;;;;10.35;5.37;;;;;;;0.57;77.01;99733.74;1744832;82;21001;-75
2022/02/19 04:56:41;;;;;;;8.68;5.50;;;;;;;0.60;76.93;99728.42;1745133;82;20949;-75
2022/02/19 04:59:09;;;;;;;9.80;5.83;;;;;;;0.63;76.87;99724.82;1744851;82;22675;-75
2022/02/19 05:01:39;;;;;;;10.00;5.53;;;;;;;0.65;76.82;99720.38;1744554;82;20953;-75
2022/02/19 05:04:08;;;;;;;10.08;5.67;;;;;;;0.67;76.73;99720.68;1744077;82;21013;-75
2022/02/19 05:06:37;;;;;;;10.05;6.15;;;;;;;0.69;76.71;99721.94;1723429;82;21013;-75
2022/02/19 05:09:04;;;;;;;10.75;5.60;;;;;;;0.71;76.67;99721.39;1715258;83;21487;-75
2022/02/19 05:11:32;;;;;;;9.38;5.45;;;;;;;0.73;76.55;99715.66;1715307;83;21807;-75
2022/02/19 05:13:59;;;;;;;10.03;5.55;;;;;;;0.77;76.48;99723.67;1715041;83;20937;-75
2022/02/19 05:16:25;;;;;;;10.15;5.30;;;;;;;0.79;76.39;99716.66;1715429;83;21527;-75
2022/02/19 05:19:03;;;;;;;8.63;5.00;;;;;;;0.82;76.31;99718.64;1715201;83;21482;-75
2022/02/19 05:21:32;;;;;;;8.75;5.03;;;;;;;0.83;76.20;99707.31;1714778;82;21440;-75
2022/02/19 05:23:58;;;;;;;11.00;5.87;;;;;;;0.86;76.14;99700.66;1745830;81;22794;-75
2022/02/19 05:26:27;;;;;;;10.90;5.05;;;;;;;0.86;76.08;99687.66;1770698;81;20974;-75
2022/02/19 05:28:53;;;;;;;8.50;4.90;;;;;;;0.90;76.00;99689.66;1771404;81;21005;-75
2022/02/19 05:31:20;;;;;;;10.38;5.12;;;;;;;0.93;75.92;99684.75;1771443;81;21013;-75
2022/02/19 05:33:55;;;;;;;7.53;4.80;;;;;;;0.97;75.84;99692.80;1770266;81;21412;-75
2022/02/19 05:36:22;;;;;;;13.28;5.37;;;;;;;1.01;75.75;99695.61;1771448;81;21438;-75
2022/02/19 05:38:48;;;;;;;9.05;5.10;;;;;;;1.02;75.67;99700.73;1771418;81;21323;-75
2022/02/19 05:41:15;;;;;;;8.35;4.97;;;;;;;1.05;75.60;99698.42;1770314;81;21045;-75
2022/02/19 05:43:42;;;;;;;11.70;5.40;;;;;;;1.07;75.54;99711.75;1771424;81;21001;-75
2022/02/19 05:46:16;;;;;;;10.05;5.30;;;;;;;1.11;75.43;99715.03;1771730;80;21053;-75
2022/02/19 05:48:43;;;;;;;9.20;5.10;;;;;;;1.14;75.32;99718.77;1771518;81;21821;-76
2022/02/19 05:51:14;;;;;;;7.47;4.85;;;;;;;1.19;75.26;99716.78;1743149;81;21021;-75
2022/02/19 05:53:54;;;;;;;9.63;5.37;;;;;;;1.25;75.17;99720.81;1751057;81;20989;-75
2022/02/19 05:56:21;;;;;;;8.13;4.70;;;;;;;1.27;75.00;99713.79;1762548;81;21094;-75
2022/02/19 05:58:50;;;;;;;9.23;4.70;;;;;;;1.30;74.88;99717.06;1740920;81;21407;-75
2022/02/19 06:01:23;;;;;;;7.53;4.35;;;;;;;1.34;74.74;99717.73;1740979;81;21850;-74
2022/02/19 06:03:51;;;;;;;9.38;4.83;;;;;;;1.39;74.59;99717.05;1740865;81;20856;-74
2022/02/19 06:06:19;;;;;;;7.37;4.50;;;;;;;1.42;74.53;99707.77;1740980;81;20956;-74
2022/02/19 06:08:47;;;;;;;9.05;4.33;;;;;;;1.44;74.43;99709.36;1740844;81;21504;-75
2022/02/19 06:11:14;;;;;;;8.98;4.47;;;;;;;1.47;74.38;99704.48;1740902;81;21046;-75
2022/02/19 06:13:52;;;;;;;10.13;4.60;;;;;;;1.52;74.29;99701.16;1720899;81;20928;-75
2022/02/19 06:16:19;;;;;;;8.20;4.40;;;;;;;1.55;74.07;99694.52;1740810;82;20932;-75
2022/02/19 06:18:50;;;;;;;8.93;4.50;;;;;;;1.61;73.87;99691.56;1739007;82;20951;-75
2022/02/19 06:21:18;;;;;;;9.50;4.60;;;;;;;1.69;73.72;99687.25;1740812;81;21000;-75
2022/02/19 06:23:48;;;;;;;7.83;4.55;;;;;;;1.74;73.54;99693.07;1722703;83;21065;-75
2022/02/19 06:26:17;;;;;;;7.58;4.15;;;;;;;1.79;73.33;99686.30;1689543;84;21864;-75
2022/02/19 06:28:46;;;;;;;9.83;4.42;;;;;;;1.81;73.14;99681.84;1707102;83;21504;-75
2022/02/19 06:31:14;;;;;;;11.10;5.10;;;;;;;1.86;73.02;99680.67;1725089;82;21057;-75
2022/02/19 06:33:41;;;;;;;9.78;5.58;;;;;;;1.90;72.94;99686.08;1739749;82;21053;-75
2022/02/19 06:36:08;;;;;;;11.50;5.85;;;;;;;1.95;72.68;99683.24;1739512;81;20945;-75
2022/02/19 06:38:39;;;;;;;12.93;5.47;;;;;;;1.99;72.44;99686.88;1739549;82;22201;-75
2022/02/19 06:41:09;;;;;;;9.58;5.80;;;;;;;2.05;72.38;99684.88;1739557;82;21495;-75
2022/02/19 06:43:40;;;;;;;8.98;5.10;;;;;;;2.10;72.21;99683.68;1738240;82;20970;-75
2022/02/19 06:46:08;;;;;;;8.60;4.72;;;;;;;2.15;72.09;99683.44;1738522;82;20954;-74
2022/02/19 06:48:35;;;;;;;10.40;5.47;;;;;;;2.19;71.85;99688.37;1738653;82;21005;-75
2022/02/19 06:51:02;;;;;;;7.75;4.15;;;;;;;2.25;71.66;99682.84;1739719;81;21696;-75
2022/02/19 06:53:29;;;;;;;7.70;3.83;;;;;;;2.29;71.35;99688.23;1739341;82;20962;-76
2022/02/19 06:55:55;;;;;;;9.28;4.00;;;;;;;2.36;71.06;99687.91;1739483;82;20993;-76
2022/02/19 06:58:23;;;;;;;8.75;4.20;;;;;;;2.40;70.85;99677.67;1738625;82;21068;-75
2022/02/19 07:00:52;;;;;;;8.20;4.28;;;;;;;2.43;70.51;99667.93;1726665;82;21041;-75
2022/02/19 07:03:19;;;;;;;7.00;3.87;;;;;;;2.50;70.19;99660.11;1710158;83;22710;-75
2022/02/19 07:05:51;;;;;;;9.58;3.95;;;;;;;2.56;69.73;99651.95;1731392;82;20946;-75
2022/02/19 07:08:20;;;;;;;7.28;3.25;;;;;;;2.62;69.29;99645.55;1738318;82;20967;-76
2022/02/19 07:10:47;;;;;;;7.90;3.27;;;;;;;2.68;69.01;99643.87;1739100;82;21101;-76
2022/02/19 07:13:14;;;;;;;7.35;3.60;;;;;;;2.73;68.38;99626.67;1739477;81;21072;-76
2022/02/19 07:15:45;;;;;;;5.53;3.05;;;;;;;2.79;68.20;99627.59;1739550;82;21422;-76
2022/02/19 07:18:16;;;;;;;6.20;2.67;;;;;;;2.84;67.66;99632.92;1739328;82;25494;-76
2022/02/19 07:20:48;;;;;;;7.15;2.80;;;;;;;2.92;67.39;99629.86;1719243;82;20949;-75
2022/02/19 07:23:15;;;;;;;5.72;2.90;;;;;;;2.98;66.78;99632.08;1711108;82;21016;-76
2022/02/19 07:25:44;;;;;;;6.40;2.60;;;;;;;3.06;66.45;99650.73;1709841;83;21033;-76
2022/02/19 07:28:11;;;;;;;6.22;2.60;;;;;;;3.11;66.14;99650.47;1709847;84;22686;-75
2022/02/19 07:30:39;;;;;;;5.00;2.67;;;;;;;3.14;65.73;99658.94;1709940;84;20846;-76
2022/02/19 07:33:08;;;;;;;5.95;2.62;;;;;;;3.18;65.63;99646.53;1709897;84;21001;-76
2022/02/19 07:35:42;;;;;;;7.12;2.45;;;;;;;3.19;65.34;99643.02;1709455;84;21128;-75
2022/02/19 07:38:12;;;;;;;5.67;3.05;;;;;;;3.20;65.01;99659.05;1710324;82;20954;-76
2022/02/19 07:40:39;;;;;;;5.30;2.72;;;;;;;3.21;64.83;99655.51;1709920;84;22429;-76
2022/02/19 07:43:07;;;;;;;6.35;2.52;;;;;;;3.22;64.35;99667.62;1709800;84;21476;-75
2022/02/19 07:45:41;;;;;;;4.80;2.50;;;;;;;3.25;64.17;99666.12;1700757;84;20989;-74
2022/02/19 07:48:26;;;;;;;4.97;2.50;;;;;;;3.27;63.62;99669.94;1709841;84;21001;-75
2022/02/19 07:58:18;;;;;;;6.58;2.40;;;;;;;3.37;62.39;99678.88;1709120;83;21835;-74
2022/02/19 07:59:32;;;;;;;6.25;2.37;;;;;;;3.42;61.72;99667.24;1722353;82;20961;-75
2022/02/19 08:01:59;;;;;;;6.20;2.22;;;;;;;3.44;61.70;99662.76;1739217;82;21076;-75
2022/02/19 08:04:26;;;;;;;4.10;2.08;;;;;;;3.45;61.33;99645.33;1737592;82;21029;-75
2022/02/19 08:06:52;;;;;;;4.58;2.02;;;;;;;3.45;60.98;99623.13;1722789;82;21861;-75
2022/02/19 08:09:20;;;;;;;5.70;2.17;;;;;;;3.46;60.51;99614.36;1739235;82;20961;-75
2022/02/19 08:11:46;;;;;;;5.17;2.52;;;;;;;3.53;60.37;99631.33;1739451;82;21488;-75
2022/02/19 08:14:14;;;;;;;3.87;2.05;;;;;;;3.56;60.36;99604.19;1691900;82;21518;-75
2022/02/19 08:16:41;;;;;;;6.37;2.40;;;;;;;3.57;60.38;99614.56;1709972;84;20997;-75
2022/02/19 08:19:07;;;;;;;6.53;2.37;;;;;;;3.57;59.73;99598.89;1710205;84;22154;-74
2022/02/19 08:21:34;;;;;;;5.12;2.10;;;;;;;3.63;59.73;99588.52;1709842;82;21029;-75
2022/02/19 08:24:01;;;;;;;6.50;2.33;;;;;;;3.66;59.82;99594.84;1709906;83;21249;-74
2022/02/19 08:26:27;;;;;;;7.28;2.58;;;;;;;3.67;59.62;99595.23;1709919;83;21443;-75
2022/02/19 08:28:54;;;;;;;5.15;2.30;;;;;;;3.69;59.50;99568.08;1709884;84;21506;-75
2022/02/19 08:31:21;;;;;;;6.37;2.40;;;;;;;3.72;59.21;99556.59;1737961;82;22643;-75
2022/02/19 08:33:47;;;;;;;4.92;2.35;;;;;;;3.77;58.95;99546.70;1739328;82;21104;-75
2022/02/19 08:36:14;;;;;;;5.70;2.35;;;;;;;3.85;58.98;99553.55;1739338;81;21033;-74
2022/02/19 08:38:40;;;;;;;6.10;1.80;;;;;;;3.93;58.74;99537.38;1739274;82;21361;-75
2022/02/19 08:41:07;;;;;;;4.55;2.30;;;;;;;4.00;58.13;99553.87;1739407;82;20994;-75
2022/02/19 08:43:33;;;;;;;4.67;2.10;;;;;;;4.11;58.66;99560.16;1718222;82;22671;-75
2022/02/19 08:46:00;;;;;;;5.05;2.47;;;;;;;4.19;57.88;99540.90;1738872;82;21420;-75
2022/02/19 08:48:30;;;;;;;7.35;2.20;;;;;;;4.27;57.59;99543.84;1739303;82;20997;-75
2022/02/19 08:50:57;;;;;;;4.22;2.00;;;;;;;4.38;57.63;99549.66;1739519;82;20997;-75
2022/02/19 08:53:24;;;;;;;5.22;2.27;;;;;;;4.42;57.06;99545.89;1739394;82;21068;-75
2022/02/19 08:55:51;;;;;;;6.28;2.37;;;;;;;4.47;57.03;99535.97;1739318;82;21711;-75
2022/02/19 08:58:18;;;;;;;4.97;2.17;;;;;;;4.52;56.75;99517.70;1739220;82;20994;-75
2022/02/19 09:00:46;;;;;;;4.28;2.00;;;;;;;4.55;56.93;99514.90;1734439;82;21032;-75
2022/02/19 09:03:13;;;;;;;2.62;1.30;;;;;;;4.58;56.66;99505.53;1710813;82;21575;-75
2022/02/19 09:05:41;;;;;;;4.58;1.82;;;;;;;4.63;55.90;99505.20;1709873;84;20969;-74
2022/02/19 09:08:08;;;;;;;4.33;2.20;;;;;;;4.68;56.36;99495.74;1710215;84;21828;-74
2022/02/19 09:10:35;;;;;;;5.58;1.90;;;;;;;4.71;56.36;99492.91;1712003;82;21492;-75
2022/02/19 09:13:02;;;;;;;3.27;1.87;;;;;;;4.73;55.67;99528.50;1726369;82;21329;-75
2022/02/19 09:15:28;;;;;;;5.67;1.92;;;;;;;4.77;55.80;99530.42;1710103;84;20958;-75
2022/02/19 09:17:55;;;;;;;4.50;1.95;;;;;;;4.78;55.34;99525.55;1709859;84;21069;-75
2022/02/19 09:20:21;;;;;;;4.35;2.00;;;;;;;4.78;55.28;99515.92;1714159;82;22787;-75
2022/02/19 09:22:50;;;;;;;3.33;1.57;;;;;;;4.78;55.15;99547.80;1739265;82;20950;-74
2022/02/19 09:25:16;;;;;;;8.03;1.80;;;;;;;4.80;55.61;99487.88;1749192;81;20984;-75
2022/02/19 09:27:42;;;;;;;3.67;1.70;;;;;;;4.79;55.39;99471.81;1771499;81;20938;-75
2022/02/19 09:30:10;;;;;;;5.00;1.70;;;;;;;4.85;55.08;99471.87;1771538;81;20997;-75
2022/02/19 09:32:37;;;;;;;3.98;1.40;;;;;;;4.92;54.95;99484.02;1771463;81;22522;-73
2022/02/19 09:35:05;;;;;;;4.20;1.90;;;;;;;4.98;54.82;99486.22;1771655;81;21025;-74
2022/02/19 09:37:33;;;;;;;4.90;1.92;;;;;;;5.02;55.08;99491.16;1770318;81;21571;-76
2022/02/19 09:40:01;;;;;;;3.60;2.00;;;;;;;5.04;54.54;99477.48;1743917;81;21029;-75
2022/02/19 09:42:28;;;;;;;3.55;2.00;;;;;;;5.07;54.66;99470.70;1771451;81;20978;-74
2022/02/19 09:44:56;;;;;;;2.30;1.65;;;;;;;5.07;54.58;99502.11;1771943;81;21791;-75
2022/02/19 09:47:26;;;;;;;3.92;1.95;;;;;;;5.04;54.55;99493.18;1771357;81;20938;-74
2022/02/19 09:49:54;;;;;;;5.90;1.85;;;;;;;5.03;54.40;99503.77;1771527;81;20945;-75
2022/02/19 09:52:20;;;;;;;4.70;2.00;;;;;;;5.02;54.40;99503.37;1758412;81;20981;-75
2022/02/19 09:54:47;;;;;;;4.12;1.95;;;;;;;5.02;54.47;99485.05;1770258;81;21477;-74
2022/02/19 09:57:14;;;;;;;3.42;2.02;;;;;;;4.99;54.91;99494.44;1743140;81;22636;-74
2022/02/19 09:59:40;;;;;;;4.03;1.87;;;;;;;4.96;54.90;99515.13;1771450;81;21401;-74
2022/02/19 10:02:06;;;;;;;5.37;1.80;;;;;;;4.96;55.27;99515.59;1727577;81;21096;-75
2022/02/19 10:04:33;;;;;;;4.78;2.12;;;;;;;4.95;55.44;99521.30;1728244;83;21787;-75
2022/02/19 10:07:15;;;;;;;5.15;2.10;;;;;;;4.93;55.67;99504.87;1741388;82;20949;-75
2022/02/19 10:09:46;;;;;;;4.78;2.00;;;;;;;4.96;55.80;99500.73;1741046;82;22667;-75
2022/02/19 10:12:16;;;;;;;4.92;1.82;;;;;;;4.98;55.82;99492.77;1741859;81;21052;-76
2022/02/19 10:14:43;;;;;;;5.35;2.17;;;;;;;5.01;55.72;99474.22;1741218;81;20964;-75
2022/02/19 10:17:22;;;;;;;5.70;2.50;;;;;;;4.99;55.56;99491.34;1745718;81;20996;-75
2022/02/19 10:19:54;;;;;;;4.70;1.90;;;;;;;5.00;55.58;99485.16;1753058;81;20951;-76
2022/02/19 10:22:29;;;;;;;4.03;2.00;;;;;;;4.98;55.69;99493.59;1728630;83;22513;-75
2022/02/19 10:25:01;;;;;;;3.50;1.92;;;;;;;4.99;56.22;99490.03;1708105;83;21663;-75
2022/02/19 10:27:49;;;;;;;4.67;2.12;;;;;;;4.94;56.02;99479.08;1710091;84;20994;-75
2022/02/19 10:30:17;;;;;;;5.50;2.15;;;;;;;4.93;56.39;99465.63;1737116;82;21044;-74
2022/02/19 10:32:59;;;;;;;6.37;2.05;;;;;;;4.93;56.40;99447.31;1739721;81;21037;-74
2022/02/19 10:35:37;;;;;;;3.67;2.30;;;;;;;4.94;56.17;99425.91;1739472;82;22630;-74
2022/02/19 10:38:06;;;;;;;3.08;1.92;;;;;;;4.99;56.53;99439.00;1718453;82;21093;-74
2022/02/19 10:40:40;;;;;;;6.00;2.25;;;;;;;5.02;56.26;99446.66;1739781;82;21056;-75
2022/02/19 10:43:09;;;;;;;5.83;2.17;;;;;;;5.07;56.48;99423.59;1739587;82;20997;-75
2022/02/19 10:45:37;;;;;;;4.05;2.02;;;;;;;5.11;56.91;99435.50;1738614;81;21013;-75
2022/02/19 10:48:20;;;;;;;4.78;2.15;;;;;;;5.12;56.75;99418.88;1739697;82;21778;-75
2022/02/19 10:50:50;;;;;;;5.15;2.08;;;;;;;5.15;56.79;99433.52;1739551;82;20981;-75
2022/02/19 10:53:27;;;;;;;5.05;2.00;;;;;;;5.15;56.99;99436.14;1739702;82;21061;-75
2022/02/19 10:55:54;;;;;;;3.52;2.10;;;;;;;5.14;57.25;99453.63;1739641;82;21048;-76
2022/02/19 10:58:21;;;;;;;4.97;2.30;;;;;;;5.11;57.44;99447.28;1739536;81;21454;-76
2022/02/19 11:00:47;;;;;;;5.58;2.10;;;;;;;5.11;57.82;99464.77;1713326;83;22444;-75
2022/02/19 11:03:15;;;;;;;5.45;2.25;;;;;;;5.06;58.13;99470.82;1710863;82;21059;-76
2022/02/19 11:05:42;;;;;;;4.53;2.12;;;;;;;5.01;58.53;99488.61;1709960;84;20953;-75
2022/02/19 11:08:10;;;;;;;5.37;2.30;;;;;;;4.96;58.76;99492.88;1709919;84;21308;-75
2022/02/19 11:10:38;;;;;;;10.15;2.40;;;;;;;4.95;59.16;99499.06;1710120;84;21071;-75
2022/02/19 11:13:05;;;;;;;4.90;2.27;;;;;;;4.91;59.38;99484.50;1689813;84;22269;-75
2022/02/19 11:15:32;;;;;;;5.83;2.67;;;;;;;4.87;59.52;99496.97;1709921;84;20962;-75
2022/02/19 11:17:58;;;;;;;5.30;2.60;;;;;;;4.86;59.64;99507.55;1710200;84;20969;-75
2022/02/19 11:20:25;;;;;;;5.12;2.50;;;;;;;4.88;59.71;99492.09;1710882;82;21496;-76
2022/02/19 11:22:54;;;;;;;5.35;2.92;;;;;;;4.90;59.71;99497.22;1711822;82;21496;-76
2022/02/19 11:25:23;;;;;;;4.80;2.35;;;;;;;4.93;59.85;99500.12;1714264;83;22197;-76
2022/02/19 11:28:01;;;;;;;4.22;2.50;;;;;;;4.93;60.02;99504.87;1718373;83;20997;-76
2022/02/19 11:30:30;;;;;;;4.97;2.35;;;;;;;4.92;60.26;99507.10;1680513;83;21052;-76
2022/02/19 11:32:58;;;;;;;4.22;2.37;;;;;;;4.93;60.19;99510.59;1718305;83;20997;-76
2022/02/19 11:35:36;;;;;;;4.62;2.17;;;;;;;4.98;60.33;99502.76;1718599;83;21126;-76
2022/02/19 11:38:04;;;;;;;4.22;2.22;;;;;;;5.02;59.91;99495.52;1718191;82;21866;-76
2022/02/19 11:40:44;;;;;;;9.25;5.00;;;;;;;5.10;59.96;99503.67;1692384;83;21005;-75
2022/02/19 11:43:40;;;;;;;5.20;2.60;;;;;;;5.16;60.03;99496.70;1718321;83;20964;-75
2022/02/19 11:46:18;;;;;;;5.12;2.58;;;;;;;5.17;60.00;99493.97;1717875;83;21092;-75
2022/02/19 11:48:46;;;;;;;4.42;2.30;;;;;;;5.21;59.74;99484.58;1691727;83;21506;-75
2022/02/19 11:51:27;;;;;;;4.15;2.05;;;;;;;5.26;59.95;99478.09;1692067;83;21881;-75
2022/02/19 11:54:10;;;;;;;4.00;2.30;;;;;;;5.32;59.87;99471.58;1719208;82;21040;-75